Time;durP1;ratioP1;P1;durP2;ratioP2;P2;SDS_P1;SDS_P2;PMS_P1;PMS_P2;Temp;Humidity;BMP_temperature;BMP_pressure;BME280_temperature;BME280_humidity;BME280_pressure;Samples;Min_cycle;Max_cycle;Signal;HPM_P1;HPM_P2
2023/10/22 00:01:47;;;;;;;4.53;0.25;;;13.70;99.90;;;;;;4990761;28;20031;-71
2023/10/22 00:04:13;;;;;;;1.60;0.15;;;13.70;99.90;;;;;;4982695;28;20042;-71
2023/10/22 00:06:38;;;;;;;4.90;0.20;;;13.70;99.90;;;;;;4988345;28;20022;-71
2023/10/22 00:09:04;;;;;;;0.90;0.10;;;13.60;99.90;;;;;;4990759;28;20513;-71
2023/10/22 00:11:30;;;;;;;3.17;0.10;;;13.60;99.90;;;;;;4990323;28;20749;-70
2023/10/22 00:13:55;;;;;;;3.42;0.20;;;13.60;99.90;;;;;;4994719;28;20031;-71
2023/10/22 00:16:21;;;;;;;2.47;0.10;;;13.60;99.90;;;;;;4989355;28;20030;-71
2023/10/22 00:18:46;;;;;;;2.78;0.10;;;13.60;99.90;;;;;;4990188;28;20035;-70
2023/10/22 00:21:12;;;;;;;2.65;0.20;;;13.60;99.90;;;;;;4987575;28;20475;-70
2023/10/22 00:23:37;;;;;;;0.85;0.20;;;13.60;99.90;;;;;;4991651;28;20050;-71
2023/10/22 00:26:03;;;;;;;2.70;0.20;;;13.60;99.90;;;;;;4986490;28;20390;-70
2023/10/22 00:28:28;;;;;;;1.90;0.20;;;13.60;99.90;;;;;;4986101;28;20075;-71
2023/10/22 00:30:54;;;;;;;3.97;0.30;;;13.60;99.90;;;;;;4989253;28;20110;-71
2023/10/22 00:33:19;;;;;;;0.88;0.17;;;13.60;99.90;;;;;;4988490;28;20428;-70
2023/10/22 00:36:00;;;;;;;0.80;0.10;;;13.70;99.90;;;;;;4986562;28;20441;-71
2023/10/22 00:38:26;;;;;;;5.93;0.38;;;13.70;99.90;;;;;;4989989;28;20034;-70
2023/10/22 00:40:52;;;;;;;2.40;0.20;;;13.60;99.90;;;;;;4983060;28;20037;-71
2023/10/22 00:43:18;;;;;;;3.45;0.25;;;13.70;99.90;;;;;;4990116;28;20054;-71
2023/10/22 00:45:44;;;;;;;1.33;0.10;;;13.60;99.90;;;;;;4988932;28;20022;-70
2023/10/22 00:48:10;;;;;;;2.20;0.28;;;13.70;99.90;;;;;;4986764;28;20075;-70
2023/10/22 00:50:39;;;;;;;2.70;0.10;;;13.70;99.90;;;;;;4990407;28;20719;-71
2023/10/22 00:53:06;;;;;;;1.17;0.20;;;13.60;99.90;;;;;;4987324;28;20387;-71
2023/10/22 00:55:38;;;;;;;2.05;0.10;;;13.60;99.90;;;;;;4990276;28;20474;-71
2023/10/22 00:58:04;;;;;;;;;;;13.50;99.90;;;;;;4982421;28;20023;-71
2023/10/22 01:00:30;;;;;;;1.83;0.20;;;13.50;99.90;;;;;;4985980;28;19960;-71
2023/10/22 01:02:55;;;;;;;1.45;0.20;;;13.50;99.90;;;;;;4989041;28;20073;-70
2023/10/22 01:05:21;;;;;;;3.50;0.63;;;13.50;99.90;;;;;;4990401;28;20036;-71
2023/10/22 01:07:47;;;;;;;1.75;0.20;;;13.50;99.90;;;;;;4989255;28;20070;-70
2023/10/22 01:10:13;;;;;;;2.50;0.93;;;13.40;99.90;;;;;;4987425;28;20675;-70
2023/10/22 01:12:39;;;;;;;1.63;0.50;;;13.40;99.90;;;;;;4989867;28;20082;-70
2023/10/22 01:15:06;;;;;;;1.67;0.10;;;13.50;99.90;;;;;;4992853;28;20031;-70
2023/10/22 01:17:32;;;;;;;2.47;0.20;;;13.50;99.90;;;;;;4990297;28;20041;-70
2023/10/22 01:19:57;;;;;;;2.22;0.32;;;13.50;99.90;;;;;;4990286;28;20034;-70
2023/10/22 01:22:23;;;;;;;0.88;0.15;;;13.50;99.90;;;;;;4987230;28;20163;-71
2023/10/22 01:24:48;;;;;;;2.08;0.20;;;13.50;99.90;;;;;;4987419;28;20065;-71
2023/10/22 01:27:14;;;;;;;2.58;0.30;;;13.50;99.90;;;;;;4987844;28;20030;-70
2023/10/22 01:29:40;;;;;;;4.15;0.30;;;13.50;99.90;;;;;;4989502;28;20044;-71
2023/10/22 01:32:05;;;;;;;2.38;0.20;;;13.50;99.90;;;;;;4989251;28;20019;-70
2023/10/22 01:34:31;;;;;;;2.53;0.30;;;13.50;99.90;;;;;;4988429;28;20023;-71
2023/10/22 01:36:57;;;;;;;2.45;0.20;;;13.50;99.90;;;;;;4990853;28;20024;-70
2023/10/22 01:39:22;;;;;;;2.50;0.20;;;13.50;99.90;;;;;;4987586;28;20080;-71
2023/10/22 01:41:49;;;;;;;3.33;0.30;;;13.60;99.90;;;;;;4989061;28;20031;-71
2023/10/22 01:44:15;;;;;;;2.33;0.30;;;13.60;99.90;;;;;;4986284;28;20099;-71
2023/10/22 01:46:40;;;;;;;3.78;0.70;;;13.60;99.90;;;;;;4987198;28;20058;-70
2023/10/22 01:49:06;;;;;;;1.13;0.15;;;13.60;99.90;;;;;;4990954;28;20087;-70
2023/10/22 01:51:31;;;;;;;3.88;0.20;;;13.60;99.90;;;;;;4985748;28;20018;-70
2023/10/22 01:53:58;;;;;;;3.58;0.30;;;13.50;99.90;;;;;;4988609;28;20031;-70
2023/10/22 01:56:23;;;;;;;3.88;0.30;;;13.40;99.90;;;;;;4989053;28;20555;-70
2023/10/22 01:58:49;;;;;;;3.00;0.52;;;13.40;99.90;;;;;;4987056;28;20035;-70
2023/10/22 02:01:14;;;;;;;1.90;0.20;;;13.30;99.90;;;;;;4986979;28;20072;-70
2023/10/22 02:03:45;;;;;;;1.42;0.20;;;13.30;99.90;;;;;;4987338;28;20084;-70
2023/10/22 02:06:14;;;;;;;3.35;0.50;;;13.30;99.90;;;;;;4983002;28;20054;-70
2023/10/22 02:08:41;;;;;;;4.10;0.38;;;13.20;99.90;;;;;;4987094;28;20042;-70
2023/10/22 02:11:06;;;;;;;2.20;0.30;;;13.20;99.90;;;;;;4990559;28;20097;-70
2023/10/22 02:13:32;;;;;;;3.00;0.22;;;13.10;99.90;;;;;;4986055;28;20105;-70
2023/10/22 02:15:58;;;;;;;2.25;0.30;;;13.10;99.90;;;;;;4981879;28;20022;-70
2023/10/22 02:18:23;;;;;;;3.17;0.38;;;13.00;99.90;;;;;;4989741;28;20037;-70
2023/10/22 02:20:59;;;;;;;2.85;0.38;;;12.90;99.90;;;;;;4979831;28;20102;-70
2023/10/22 02:23:25;;;;;;;5.90;0.55;;;12.80;99.90;;;;;;4981732;28;20061;-71
2023/10/22 02:25:50;;;;;;;4.43;0.40;;;12.80;99.90;;;;;;4986075;28;20465;-70
2023/10/22 02:28:17;;;;;;;1.67;0.40;;;12.70;99.90;;;;;;4987549;28;20054;-70
2023/10/22 02:30:44;;;;;;;3.63;0.40;;;12.70;99.90;;;;;;4986653;28;20022;-70
2023/10/22 02:33:09;;;;;;;4.95;0.82;;;12.70;99.90;;;;;;4985341;28;20030;-70
2023/10/22 02:35:45;;;;;;;4.07;0.45;;;12.60;99.90;;;;;;4987363;28;20031;-70
2023/10/22 02:38:15;;;;;;;2.50;0.40;;;12.70;99.90;;;;;;4985381;28;20137;-70
2023/10/22 02:40:41;;;;;;;3.40;0.40;;;12.70;99.90;;;;;;4988539;28;20022;-70
2023/10/22 02:43:07;;;;;;;4.32;0.95;;;12.70;99.90;;;;;;4988292;28;20099;-70
2023/10/22 02:45:33;;;;;;;3.42;0.50;;;12.60;99.90;;;;;;4988390;28;20037;-70
2023/10/22 02:47:59;;;;;;;3.83;0.45;;;12.70;99.90;;;;;;4979921;28;20091;-70
2023/10/22 02:50:26;;;;;;;2.45;0.40;;;12.60;99.90;;;;;;5020810;28;20028;-70
2023/10/22 02:52:52;;;;;;;3.83;0.63;;;12.60;99.90;;;;;;5007791;28;20039;-70
2023/10/22 02:55:18;;;;;;;5.40;0.70;;;12.60;99.90;;;;;;5002513;28;20038;-70
2023/10/22 02:57:44;;;;;;;2.20;0.40;;;12.60;99.90;;;;;;4987520;28;20083;-70
2023/10/22 03:00:10;;;;;;;7.63;0.50;;;12.60;99.90;;;;;;4984816;28;20071;-70
2023/10/22 03:02:37;;;;;;;4.20;0.50;;;12.60;99.90;;;;;;4986404;28;20031;-70
2023/10/22 03:05:03;;;;;;;1.45;0.50;;;12.70;99.90;;;;;;4979050;28;20372;-70
2023/10/22 03:07:29;;;;;;;3.47;0.45;;;12.60;99.90;;;;;;4986163;28;20490;-70
2023/10/22 03:09:54;;;;;;;5.00;0.60;;;12.60;99.90;;;;;;4987839;28;20042;-70
2023/10/22 03:12:20;;;;;;;4.68;0.52;;;12.60;99.90;;;;;;4981941;28;20037;-70
2023/10/22 03:14:45;;;;;;;3.53;0.43;;;12.60;99.90;;;;;;4986998;28;20027;-70
2023/10/22 03:17:12;;;;;;;2.72;0.40;;;12.60;99.90;;;;;;4987492;28;20049;-70
2023/10/22 03:19:38;;;;;;;4.82;0.60;;;12.60;99.90;;;;;;4982088;28;20551;-70
2023/10/22 03:22:04;;;;;;;2.90;0.50;;;12.60;99.90;;;;;;4997626;28;20435;-70
2023/10/22 03:24:30;;;;;;;2.38;0.40;;;12.60;99.90;;;;;;4991454;28;20181;-70
2023/10/22 03:26:56;;;;;;;5.07;0.85;;;12.60;99.90;;;;;;4986343;28;20097;-70
2023/10/22 03:29:22;;;;;;;2.55;0.68;;;12.60;99.90;;;;;;4986034;28;20037;-70
2023/10/22 03:31:47;;;;;;;2.95;0.70;;;12.60;99.90;;;;;;4986868;28;20027;-70
2023/10/22 03:34:13;;;;;;;4.72;0.70;;;12.60;99.90;;;;;;4984780;28;20034;-70
2023/10/22 03:36:39;;;;;;;2.30;0.60;;;12.60;99.90;;;;;;4987242;28;20079;-70
2023/10/22 03:39:06;;;;;;;3.92;0.85;;;12.60;99.90;;;;;;4989744;28;20080;-70
2023/10/22 03:41:33;;;;;;;4.20;0.70;;;12.60;99.90;;;;;;4986843;28;20448;-70
2023/10/22 03:43:59;;;;;;;3.50;0.73;;;12.60;99.90;;;;;;4987401;28;20046;-70
2023/10/22 03:46:25;;;;;;;2.95;0.70;;;12.50;99.90;;;;;;4987008;28;20106;-70
2023/10/22 03:48:50;;;;;;;4.03;0.98;;;12.60;99.90;;;;;;4985777;28;20563;-70
2023/10/22 03:51:16;;;;;;;2.72;0.88;;;12.50;99.90;;;;;;4986686;28;20454;-70
2023/10/22 03:53:41;;;;;;;3.13;1.17;;;12.50;99.90;;;;;;4987401;28;20069;-70
2023/10/22 03:56:07;;;;;;;4.65;0.98;;;12.60;99.90;;;;;;4982768;28;20428;-70
2023/10/22 03:58:33;;;;;;;5.00;1.55;;;12.50;99.90;;;;;;4980350;28;20109;-70
2023/10/22 04:00:58;;;;;;;5.03;1.25;;;12.40;99.90;;;;;;4990313;28;20031;-70
2023/10/22 04:03:24;;;;;;;5.30;1.55;;;12.40;99.90;;;;;;4999854;28;21058;-70
2023/10/22 04:05:57;;;;;;;4.40;1.80;;;12.30;99.90;;;;;;4983981;28;20030;-70
2023/10/22 04:08:24;;;;;;;2.88;1.90;;;12.30;99.90;;;;;;4982921;28;20023;-70
2023/10/22 04:10:49;;;;;;;8.63;2.22;;;12.20;99.90;;;;;;4982476;28;20479;-70
2023/10/22 04:13:15;;;;;;;7.38;2.70;;;12.30;99.90;;;;;;4984810;28;20091;-70
2023/10/22 04:15:40;;;;;;;4.55;2.53;;;12.20;99.90;;;;;;4986435;28;20026;-70
2023/10/22 04:18:06;;;;;;;5.50;2.45;;;12.20;99.90;;;;;;4985338;28;20080;-70
2023/10/22 04:20:33;;;;;;;5.72;3.05;;;12.20;99.90;;;;;;4986033;28;20101;-70
2023/10/22 04:22:59;;;;;;;6.60;3.20;;;12.20;99.90;;;;;;4986497;28;20042;-70
2023/10/22 04:25:25;;;;;;;4.45;3.22;;;12.30;99.90;;;;;;4985096;28;20042;-70
2023/10/22 04:27:51;;;;;;;4.53;3.08;;;12.30;99.90;;;;;;4982984;28;20494;-70
2023/10/22 04:30:17;;;;;;;5.72;3.13;;;12.30;99.90;;;;;;4975505;28;20066;-70
2023/10/22 04:32:42;;;;;;;11.07;3.28;;;12.30;99.90;;;;;;4986639;28;20064;-70
2023/10/22 04:35:08;;;;;;;16.35;4.13;;;12.20;99.90;;;;;;4975498;28;20042;-70
2023/10/22 04:37:33;;;;;;;6.53;3.92;;;12.20;99.90;;;;;;4985051;28;20046;-70
2023/10/22 04:39:59;;;;;;;7.70;4.25;;;12.20;99.90;;;;;;4984647;28;20169;-70
2023/10/22 04:42:25;;;;;;;8.60;4.00;;;12.20;99.90;;;;;;4986530;28;20082;-71
2023/10/22 04:44:50;;;;;;;6.63;4.55;;;12.20;99.90;;;;;;4983719;28;20037;-70
2023/10/22 04:47:16;;;;;;;7.15;5.05;;;12.20;99.90;;;;;;4984164;28;20100;-70
2023/10/22 04:49:44;;;;;;;7.68;4.68;;;12.30;99.90;;;;;;4987685;28;20026;-70
2023/10/22 04:52:10;;;;;;;11.98;4.60;;;12.30;99.90;;;;;;4987831;28;20109;-70
2023/10/22 04:54:36;;;;;;;12.10;5.95;;;12.30;99.90;;;;;;4985789;28;20026;-70
2023/10/22 04:57:05;;;;;;;10.75;5.68;;;12.30;99.90;;;;;;4979970;28;20053;-70
2023/10/22 04:59:30;;;;;;;8.20;5.05;;;12.30;99.90;;;;;;4985930;28;20030;-70
2023/10/22 05:01:56;;;;;;;6.72;4.75;;;12.30;99.90;;;;;;4981052;28;20379;-70
2023/10/22 05:04:21;;;;;;;8.43;5.03;;;12.30;99.90;;;;;;4979739;28;20132;-70
2023/10/22 05:06:47;;;;;;;6.75;5.30;;;12.30;99.90;;;;;;4982170;28;20127;-70
2023/10/22 05:09:12;;;;;;;10.15;5.60;;;12.20;99.90;;;;;;4988214;28;20035;-70
2023/10/22 05:11:38;;;;;;;10.55;5.05;;;12.20;99.90;;;;;;4987137;28;20037;-70
2023/10/22 05:14:03;;;;;;;6.25;4.55;;;12.20;99.90;;;;;;4991074;28;20105;-70
2023/10/22 05:16:29;;;;;;;6.65;4.18;;;12.20;99.90;;;;;;4989526;28;20109;-70
2023/10/22 05:18:54;;;;;;;6.38;3.83;;;12.10;99.90;;;;;;5020432;28;20027;-70
2023/10/22 05:21:20;;;;;;;12.65;4.30;;;12.10;99.90;;;;;;4986624;28;20497;-70
2023/10/22 05:23:46;;;;;;;8.30;4.45;;;12.10;99.90;;;;;;4983231;28;20043;-70
2023/10/22 05:26:12;;;;;;;7.30;4.40;;;12.10;99.90;;;;;;4989943;28;20416;-70
2023/10/22 05:28:38;;;;;;;6.63;4.10;;;12.10;99.90;;;;;;4989205;28;20034;-70
2023/10/22 05:31:13;;;;;;;7.10;4.80;;;12.10;99.90;;;;;;4989517;28;20018;-70
2023/10/22 05:33:39;;;;;;;11.73;4.80;;;12.10;99.90;;;;;;4991169;28;20068;-70
2023/10/22 05:36:12;;;;;;;8.13;5.03;;;12.10;99.90;;;;;;4988501;28;20026;-70
2023/10/22 05:38:37;;;;;;;8.55;5.55;;;12.10;99.90;;;;;;4989796;28;20083;-70
2023/10/22 05:41:03;;;;;;;8.30;5.35;;;12.10;99.90;;;;;;4986564;28;20547;-70
2023/10/22 05:43:28;;;;;;;9.18;5.93;;;12.10;99.90;;;;;;4985422;28;20050;-70
2023/10/22 05:45:57;;;;;;;11.38;5.88;;;12.10;99.90;;;;;;4986997;28;20030;-70
2023/10/22 05:48:23;;;;;;;9.30;5.35;;;12.10;99.90;;;;;;4985071;28;20022;-70
2023/10/22 05:50:48;;;;;;;8.60;6.22;;;12.10;99.90;;;;;;4987803;28;20390;-71
2023/10/22 05:53:14;;;;;;;12.07;5.72;;;12.00;99.90;;;;;;4982374;28;20030;-71
2023/10/22 05:55:39;;;;;;;10.23;5.82;;;12.00;99.90;;;;;;4978806;28;20034;-71
2023/10/22 05:58:06;;;;;;;7.43;5.55;;;12.00;99.90;;;;;;4998466;28;20026;-71
2023/10/22 06:00:31;;;;;;;9.90;5.65;;;12.00;99.90;;;;;;4987311;28;20050;-70
2023/10/22 06:02:57;;;;;;;9.32;5.18;;;11.90;99.90;;;;;;4986801;28;20099;-71
2023/10/22 06:05:23;;;;;;;8.98;4.97;;;11.90;99.90;;;;;;4988456;28;20482;-70
2023/10/22 06:07:51;;;;;;;11.57;5.00;;;11.80;99.90;;;;;;4978388;28;20039;-71
2023/10/22 06:10:16;;;;;;;10.55;5.15;;;11.70;99.90;;;;;;4990407;28;20466;-70
2023/10/22 06:12:42;;;;;;;7.57;5.00;;;11.70;99.90;;;;;;4987828;28;20100;-70
2023/10/22 06:15:08;;;;;;;9.02;4.88;;;11.60;99.90;;;;;;4985456;28;20041;-70
2023/10/22 06:17:33;;;;;;;6.40;4.05;;;11.50;99.90;;;;;;4988552;28;20072;-70
2023/10/22 06:19:59;;;;;;;8.23;4.20;;;11.50;99.90;;;;;;4988807;28;20057;-71
2023/10/22 06:22:25;;;;;;;7.20;4.05;;;11.40;99.90;;;;;;4990414;28;20034;-71
2023/10/22 06:24:50;;;;;;;7.18;4.10;;;11.40;99.90;;;;;;4986811;28;20584;-71
2023/10/22 06:27:16;;;;;;;10.80;4.05;;;11.30;99.90;;;;;;4984066;28;20027;-71
2023/10/22 06:29:46;;;;;;;8.43;4.10;;;11.30;99.90;;;;;;4987446;28;20394;-71
2023/10/22 06:32:11;;;;;;;8.35;4.05;;;11.30;99.90;;;;;;4987217;28;20151;-71
2023/10/22 06:34:37;;;;;;;8.68;3.40;;;11.20;99.90;;;;;;4987910;28;20023;-71
2023/10/22 06:37:02;;;;;;;11.93;4.00;;;11.20;99.90;;;;;;4983490;28;20031;-71
2023/10/22 06:39:28;;;;;;;5.15;3.42;;;11.10;99.90;;;;;;4981380;28;20034;-70
2023/10/22 06:41:54;;;;;;;6.07;3.33;;;11.10;99.90;;;;;;4977699;28;20515;-71
2023/10/22 06:44:19;;;;;;;5.50;3.17;;;11.10;99.90;;;;;;4989392;28;20049;-71
2023/10/22 06:46:45;;;;;;;8.23;2.88;;;11.00;99.90;;;;;;4995934;28;20026;-71
2023/10/22 06:49:11;;;;;;;6.03;2.55;;;10.90;99.90;;;;;;4986627;28;20105;-71
2023/10/22 06:51:38;;;;;;;5.90;2.50;;;11.00;99.90;;;;;;4988934;28;20428;-71
2023/10/22 06:54:04;;;;;;;7.50;2.95;;;10.90;99.90;;;;;;4986012;28;20065;-71
2023/10/22 06:56:30;;;;;;;5.32;2.25;;;10.90;99.90;;;;;;4999805;28;20109;-71
2023/10/22 06:58:55;;;;;;;15.52;2.70;;;10.90;99.90;;;;;;4988783;28;20109;-70
2023/10/22 07:01:21;;;;;;;8.00;2.45;;;10.90;99.90;;;;;;4988867;28;20045;-70
2023/10/22 07:03:46;;;;;;;6.22;2.47;;;10.90;99.90;;;;;;4987870;28;20051;-70
2023/10/22 07:06:12;;;;;;;5.47;2.50;;;10.80;99.90;;;;;;4985769;28;20079;-70
2023/10/22 07:08:38;;;;;;;4.95;2.03;;;10.90;99.90;;;;;;4983196;28;20107;-70
2023/10/22 07:11:04;;;;;;;7.25;2.80;;;10.90;99.90;;;;;;4986569;28;20030;-70
2023/10/22 07:13:30;;;;;;;6.72;2.33;;;10.80;99.90;;;;;;4988369;28;20501;-70
2023/10/22 07:15:56;;;;;;;4.07;2.08;;;10.90;99.90;;;;;;4982980;28;20062;-71
2023/10/22 07:18:23;;;;;;;5.57;2.67;;;10.90;99.90;;;;;;4982118;28;20030;-71
2023/10/22 07:20:49;;;;;;;7.03;2.30;;;10.90;99.90;;;;;;4983936;28;20026;-70
2023/10/22 07:23:15;;;;;;;6.32;2.17;;;11.00;99.90;;;;;;4984454;28;20034;-70
2023/10/22 07:25:41;;;;;;;9.13;2.45;;;11.00;99.90;;;;;;4990735;28;20038;-70
2023/10/22 07:28:06;;;;;;;6.55;2.38;;;11.00;99.90;;;;;;4986321;28;20037;-70
2023/10/22 07:30:32;;;;;;;3.55;1.83;;;11.00;99.90;;;;;;4986273;28;20023;-71
2023/10/22 07:32:58;;;;;;;7.25;1.60;;;11.00;99.90;;;;;;4983760;28;20093;-70
2023/10/22 07:35:24;;;;;;;3.60;1.73;;;10.90;99.90;;;;;;4986202;28;20027;-70
2023/10/22 07:37:50;;;;;;;5.63;1.85;;;10.90;99.90;;;;;;4987413;28;20034;-70
2023/10/22 07:40:17;;;;;;;5.07;1.80;;;11.00;99.90;;;;;;4972370;28;20027;-69
2023/10/22 07:42:44;;;;;;;5.15;1.55;;;11.10;99.90;;;;;;4988472;28;20054;-71
2023/10/22 07:45:10;;;;;;;5.63;1.75;;;11.10;99.90;;;;;;4987004;28;20382;-70
2023/10/22 07:47:38;;;;;;;3.55;1.52;;;11.20;99.90;;;;;;4993404;28;20045;-70
2023/10/22 07:50:05;;;;;;;3.35;1.55;;;11.30;99.90;;;;;;4987208;28;20060;-70
2023/10/22 07:52:32;;;;;;;6.85;1.70;;;11.40;99.90;;;;;;4985808;28;20039;-71
2023/10/22 07:54:58;;;;;;;4.88;1.85;;;11.50;99.90;;;;;;4983493;28;20031;-71
2023/10/22 07:57:30;;;;;;;7.10;1.90;;;11.60;99.90;;;;;;4984290;28;20123;-71
2023/10/22 07:59:56;;;;;;;;;;;11.70;99.90;;;;;;4985159;28;20031;-71
2023/10/22 08:02:23;;;;;;;2.90;1.23;;;11.70;99.90;;;;;;4987657;28;19917;-71
2023/10/22 08:04:49;;;;;;;5.85;1.50;;;11.80;99.90;;;;;;4982602;28;20040;-70
2023/10/22 08:07:18;;;;;;;3.42;1.60;;;11.90;99.90;;;;;;4968602;28;20097;-70
2023/10/22 08:09:48;;;;;;;4.25;1.45;;;12.00;99.90;;;;;;4984613;28;20375;-71
2023/10/22 08:12:14;;;;;;;3.90;1.30;;;12.10;99.90;;;;;;4983033;28;20483;-70
2023/10/22 08:14:40;;;;;;;2.75;1.23;;;12.30;99.90;;;;;;4981982;28;20031;-70
2023/10/22 08:17:05;;;;;;;4.65;1.13;;;12.40;99.90;;;;;;4986615;28;20034;-70
2023/10/22 08:19:31;;;;;;;4.57;1.00;;;12.40;99.90;;;;;;4977431;28;20031;-70
2023/10/22 08:21:57;;;;;;;4.72;1.00;;;12.40;99.90;;;;;;4984236;28;20083;-71
2023/10/22 08:24:22;;;;;;;4.15;1.42;;;12.40;99.90;;;;;;4989049;28;20076;-71
2023/10/22 08:26:48;;;;;;;3.40;1.00;;;12.50;99.90;;;;;;4996802;28;20463;-70
2023/10/22 08:29:13;;;;;;;5.32;1.20;;;12.60;99.90;;;;;;5027687;28;20457;-70
2023/10/22 08:31:39;;;;;;;4.40;1.00;;;12.60;99.90;;;;;;4986559;28;20105;-71
2023/10/22 08:34:05;;;;;;;2.83;1.30;;;12.70;99.90;;;;;;4978992;28;20131;-71
2023/10/22 08:36:30;;;;;;;3.60;1.00;;;12.80;99.90;;;;;;4991260;28;20023;-71
2023/10/22 08:38:56;;;;;;;6.60;1.40;;;12.80;99.90;;;;;;4989275;28;20041;-71
2023/10/22 08:41:23;;;;;;;3.80;1.00;;;12.90;99.90;;;;;;4990771;28;20026;-72
2023/10/22 08:43:49;;;;;;;5.18;1.13;;;13.00;99.90;;;;;;4987549;28;21492;-72
2023/10/22 08:46:15;;;;;;;2.55;0.85;;;13.00;99.90;;;;;;4985849;28;20084;-72
2023/10/22 08:48:41;;;;;;;3.28;0.90;;;13.10;99.90;;;;;;4992544;28;20034;-72
2023/10/22 08:51:08;;;;;;;2.88;1.00;;;13.10;99.90;;;;;;4984243;28;20053;-71
2023/10/22 08:53:33;;;;;;;6.72;1.10;;;13.20;99.90;;;;;;4989753;28;20075;-71
2023/10/22 08:56:04;;;;;;;3.92;0.60;;;13.30;99.90;;;;;;4990980;28;20027;-71
2023/10/22 08:58:30;;;;;;;4.10;0.80;;;13.40;99.90;;;;;;4985554;28;20041;-72
2023/10/22 09:00:56;;;;;;;3.78;0.73;;;13.30;99.90;;;;;;4989705;28;20486;-71
2023/10/22 09:03:25;;;;;;;4.40;1.00;;;13.40;99.90;;;;;;4985312;28;20494;-71
2023/10/22 09:05:53;;;;;;;4.65;0.98;;;13.40;99.90;;;;;;4983105;28;20084;-72
2023/10/22 09:08:18;;;;;;;2.70;0.60;;;13.50;99.90;;;;;;4988979;28;20077;-71
2023/10/22 09:10:44;;;;;;;3.72;0.90;;;13.50;99.90;;;;;;4988824;28;20050;-71
2023/10/22 09:13:10;;;;;;;3.40;0.60;;;13.50;99.90;;;;;;4990481;28;20481;-71
2023/10/22 09:15:41;;;;;;;3.53;0.63;;;13.70;99.90;;;;;;4990111;28;20105;-71
2023/10/22 09:18:07;;;;;;;4.32;1.25;;;13.70;99.90;;;;;;4995800;28;20034;-70
2023/10/22 09:20:37;;;;;;;3.22;0.63;;;13.80;99.90;;;;;;4982544;28;20042;-72
2023/10/22 09:23:22;;;;;;;3.97;1.02;;;13.80;99.90;;;;;;4982536;28;20502;-71
2023/10/22 09:25:51;;;;;;;3.58;0.73;;;13.90;99.90;;;;;;4984597;28;20026;-71
2023/10/22 09:28:22;;;;;;;2.42;0.70;;;13.90;99.90;;;;;;4987951;28;20058;-71
2023/10/22 09:30:53;;;;;;;1.95;0.80;;;13.90;99.90;;;;;;4987126;28;20479;-71
2023/10/22 09:33:29;;;;;;;3.42;0.70;;;14.00;99.90;;;;;;4997349;28;20084;-71
2023/10/22 09:36:13;;;;;;;4.20;0.88;;;14.00;99.90;;;;;;4988604;28;20041;-71
2023/10/22 09:38:49;;;;;;;3.72;0.85;;;14.00;99.90;;;;;;4983805;28;20039;-71
2023/10/22 09:41:31;;;;;;;5.07;0.90;;;14.10;99.90;;;;;;4985089;28;20096;-72
2023/10/22 09:43:58;;;;;;;3.85;1.00;;;14.10;99.90;;;;;;4986331;28;20120;-71
2023/10/22 09:46:29;;;;;;;6.93;1.00;;;14.10;99.90;;;;;;4998729;28;20127;-71
2023/10/22 09:48:57;;;;;;;3.78;1.20;;;14.20;99.90;;;;;;4999635;28;20027;-71
2023/10/22 09:51:23;;;;;;;3.20;0.80;;;14.20;99.90;;;;;;4993079;28;20022;-71
2023/10/22 09:53:52;;;;;;;8.65;1.00;;;14.30;99.90;;;;;;4992841;28;20029;-71
2023/10/22 09:56:23;;;;;;;5.93;1.25;;;14.40;99.90;;;;;;4994523;28;20494;-72
2023/10/22 09:58:58;;;;;;;2.17;0.80;;;14.50;99.90;;;;;;4988890;28;20499;-72
2023/10/22 10:01:26;;;;;;;2.42;0.50;;;14.60;99.90;;;;;;4991165;28;20034;-72
2023/10/22 10:03:54;;;;;;;4.18;0.70;;;14.60;99.90;;;;;;4989360;28;20074;-72
2023/10/22 10:06:21;;;;;;;2.95;0.60;;;14.60;99.90;;;;;;4993130;28;20397;-72
2023/10/22 10:08:48;;;;;;;4.32;0.90;;;14.60;99.90;;;;;;4986408;28;20027;-72
2023/10/22 10:11:15;;;;;;;3.08;1.27;;;14.60;99.90;;;;;;4987979;28;20019;-71
2023/10/22 10:13:41;;;;;;;2.72;1.20;;;14.70;99.90;;;;;;4991669;28;20030;-72
2023/10/22 10:16:07;;;;;;;2.65;0.68;;;14.80;99.90;;;;;;4987223;28;20479;-72
2023/10/22 10:18:59;;;;;;;4.47;1.35;;;14.90;99.90;;;;;;4985719;28;20041;-72
2023/10/22 10:21:34;;;;;;;3.47;0.90;;;15.00;99.90;;;;;;4984707;28;20526;-72
2023/10/22 10:24:21;;;;;;;10.93;2.05;;;15.00;99.90;;;;;;4992362;28;20520;-72
2023/10/22 10:26:48;;;;;;;4.75;1.20;;;15.10;99.90;;;;;;4992947;28;20034;-71
2023/10/22 10:29:15;;;;;;;3.15;0.80;;;15.10;99.90;;;;;;4988689;28;20042;-72
2023/10/22 10:31:45;;;;;;;7.40;0.73;;;15.10;99.90;;;;;;4991461;28;20044;-72
2023/10/22 10:34:19;;;;;;;5.32;1.00;;;15.20;99.90;;;;;;4988492;28;20023;-72
2023/10/22 10:36:45;;;;;;;5.90;0.63;;;15.20;99.90;;;;;;4989457;28;20101;-72
2023/10/22 10:39:35;;;;;;;2.65;0.80;;;15.20;99.90;;;;;;4990330;28;20159;-72
2023/10/22 10:42:01;;;;;;;4.32;1.00;;;15.40;99.90;;;;;;4986561;28;20054;-72
2023/10/22 10:44:29;;;;;;;4.85;0.80;;;15.40;99.90;;;;;;4990142;28;20087;-72
2023/10/22 10:46:55;;;;;;;2.95;0.70;;;15.50;99.90;;;;;;4988304;28;20022;-72
2023/10/22 10:49:53;;;;;;;3.40;1.05;;;15.50;99.90;;;;;;4988302;28;20022;-72
2023/10/22 10:52:18;;;;;;;3.35;0.90;;;15.50;99.90;;;;;;4981767;28;20101;-72
2023/10/22 10:54:58;;;;;;;2.72;1.02;;;15.60;99.90;;;;;;4986783;28;20454;-72
2023/10/22 10:57:37;;;;;;;6.22;0.90;;;15.70;99.90;;;;;;4986911;28;20595;-71
2023/10/22 11:00:04;;;;;;;2.47;0.80;;;15.70;99.90;;;;;;4981573;28;20026;-71
2023/10/22 11:02:42;;;;;;;2.97;0.80;;;15.60;99.90;;;;;;4995247;28;20030;-71
2023/10/22 11:05:08;;;;;;;2.95;0.88;;;15.70;99.90;;;;;;4989331;28;20042;-72
2023/10/22 11:07:34;;;;;;;3.28;1.10;;;15.70;99.90;;;;;;4986602;28;20136;-71
2023/10/22 11:10:07;;;;;;;4.28;1.38;;;15.70;99.90;;;;;;4985705;28;20039;-71
2023/10/22 11:12:32;;;;;;;4.78;1.95;;;15.80;99.90;;;;;;4987662;28;20095;-71
2023/10/22 11:14:58;;;;;;;3.78;1.55;;;15.90;99.90;;;;;;4987943;28;20546;-71
2023/10/22 11:17:24;;;;;;;4.93;1.52;;;15.80;99.90;;;;;;4986882;28;20030;-71
2023/10/22 11:19:51;;;;;;;5.90;1.58;;;15.80;99.90;;;;;;4986634;28;20083;-72
2023/10/22 11:22:17;;;;;;;3.83;1.60;;;15.80;99.90;;;;;;4988354;28;20114;-71
2023/10/22 11:24:43;;;;;;;4.72;1.85;;;15.80;99.90;;;;;;4987853;28;20038;-72
2023/10/22 11:27:10;;;;;;;5.13;2.00;;;15.90;99.90;;;;;;4986906;28;20030;-72
2023/10/22 11:29:47;;;;;;;4.35;2.08;;;15.90;99.90;;;;;;4987240;28;20435;-71
2023/10/22 11:32:14;;;;;;;2.17;1.52;;;15.90;99.90;;;;;;4987538;28;20037;-71
2023/10/22 11:35:07;;;;;;;4.13;2.15;;;15.90;99.90;;;;;;4988949;28;20056;-72
2023/10/22 11:37:37;;;;;;;;;;;16.00;99.90;;;;;;4978756;28;20091;-72
2023/10/22 11:40:30;;;;;;;2.65;1.52;;;15.90;99.90;;;;;;4984785;28;19920;-72
2023/10/22 11:43:00;;;;;;;3.47;2.22;;;16.00;99.90;;;;;;4988533;28;20566;-72
2023/10/22 11:45:35;;;;;;;2.60;1.80;;;15.90;99.90;;;;;;4988455;28;20034;-71
2023/10/22 11:48:32;;;;;;;3.70;1.52;;;16.00;99.90;;;;;;4983784;28;20039;-72
2023/10/22 11:51:00;;;;;;;5.35;1.90;;;16.00;99.90;;;;;;4994423;28;20460;-71
2023/10/22 11:53:43;;;;;;;3.72;1.58;;;16.00;99.90;;;;;;4988365;28;20042;-71
2023/10/22 11:56:08;;;;;;;3.13;1.90;;;16.00;99.90;;;;;;4987909;28;20376;-71
2023/10/22 11:58:34;;;;;;;3.28;1.58;;;16.00;99.90;;;;;;4987514;28;20109;-71
2023/10/22 12:01:00;;;;;;;2.78;1.90;;;16.00;99.90;;;;;;4986122;28;20036;-71
2023/10/22 12:03:25;;;;;;;2.72;1.75;;;16.10;99.90;;;;;;4988048;28;20129;-71
2023/10/22 12:05:51;;;;;;;5.03;1.75;;;16.10;99.90;;;;;;4985614;28;20050;-71
2023/10/22 12:08:17;;;;;;;3.25;1.45;;;16.20;99.90;;;;;;4981393;28;20035;-71
2023/10/22 12:10:42;;;;;;;4.93;1.67;;;16.20;99.90;;;;;;4988372;28;20394;-71
2023/10/22 12:13:10;;;;;;;2.72;1.30;;;16.30;99.90;;;;;;4996496;28;20065;-71
2023/10/22 12:15:36;;;;;;;2.78;1.95;;;16.40;99.90;;;;;;4988137;28;20442;-71
2023/10/22 12:18:01;;;;;;;3.42;1.88;;;16.30;99.90;;;;;;4987998;28;20046;-71
2023/10/22 12:20:27;;;;;;;2.45;1.60;;;16.30;99.90;;;;;;4987548;28;20038;-71
2023/10/22 12:22:52;;;;;;;2.28;1.27;;;16.20;99.90;;;;;;4986106;28;20540;-71
2023/10/22 12:25:18;;;;;;;5.25;1.55;;;16.20;99.90;;;;;;4993819;28;20037;-71
2023/10/22 12:27:44;;;;;;;3.58;0.70;;;16.10;99.90;;;;;;4989590;28;20023;-71
2023/10/22 12:30:10;;;;;;;2.45;0.63;;;16.10;99.90;;;;;;4996338;28;20046;-71
2023/10/22 12:32:36;;;;;;;4.15;0.50;;;16.00;99.90;;;;;;4993110;28;20062;-71
2023/10/22 12:35:02;;;;;;;2.08;0.70;;;15.90;99.90;;;;;;4990822;28;20058;-71
2023/10/22 12:37:28;;;;;;;2.63;0.85;;;15.90;99.90;;;;;;4996229;28;20014;-71
2023/10/22 12:39:53;;;;;;;1.85;0.60;;;15.90;99.90;;;;;;4987807;28;20038;-71
2023/10/22 12:42:19;;;;;;;2.33;0.60;;;15.90;99.90;;;;;;4995353;28;20054;-72
2023/10/22 12:44:45;;;;;;;1.88;0.50;;;15.80;99.90;;;;;;4985973;28;20043;-71
2023/10/22 12:47:14;;;;;;;2.45;0.50;;;15.90;99.90;;;;;;5028451;28;20026;-71
2023/10/22 12:49:40;;;;;;;5.60;0.63;;;15.80;99.90;;;;;;4988847;28;20031;-71